Latest Weather Observations for Khancoban

IDN60801

Issued at 5:03 pm EST Monday 6 July 2015 (issued every 30 minutes, with the page automatically refreshed every 10 minutes)

About weather observations | Map of weather stations | Latest weather observations for NSW | Other Formats
Station Details ID: 072162 Name: KHANCOBAN AWS Lat: -36.23 Lon: 148.14 Height: 339.3 m
Data from the previous 72 hours. | See also: Recent months at Khancoban
Date/Time
EST
Temp
°C
App
Temp
°C
Dew
Point
Rel
Hum
%
Delta-T
°C
Wind Press
QNH
hPa
Press
MSL
hPa
Rain
since 9 am
mm
Dir
 
Spd
km/h
Gust
km/h
Spd
kts
Gust
kts
06/05:00pm 6.6 5.8 6.3 98 0.1 CALM 0 0 0 0 1017.9 1018.7 0.2
06/04:30pm 7.0 5.7 5.9 93 0.5 SW 2 6 1 3 1017.6 1018.4 0.0
06/04:00pm 7.2 5.0 6.1 93 0.5 WSW 7 11 4 6 1017.3 1018.1 0.0
06/03:30pm 7.5 6.5 5.8 89 0.8 CALM 0 0 0 0 1017.2 1018.0 0.0
06/03:00pm 7.5 6.5 5.8 89 0.8 CALM 0 0 0 0 1017.3 1018.1 0.0
06/02:30pm 7.4 6.4 5.5 88 0.9 CALM 0 6 0 3 1017.1 1017.9 0.0
06/02:00pm 7.5 6.5 5.5 87 0.9 CALM 0 0 0 0 1017.0 1017.8 0.0
06/01:30pm 7.2 6.2 5.5 89 0.8 CALM 0 6 0 3 1017.1 1017.9 0.0
06/01:00pm 7.1 6.1 5.7 91 0.6 CALM 0 0 0 0 1017.1 1017.9 0.0
06/12:30pm 7.1 6.2 5.9 92 0.6 CALM 0 0 0 0 1017.4 1018.2 0.0
06/12:00pm 6.5 5.1 5.3 92 0.5 NW 2 6 1 3 1017.8 1018.6 0.0
06/11:30am 6.0 5.1 5.9 99 0.0 CALM 0 0 0 0 1018.2 1019.0 0.0
06/11:00am 5.5 3.3 5.4 99 0.0 WSW 6 7 3 4 1018.6 1019.3 0.0
06/10:30am 4.8 3.6 4.7 99 0.0 CALM 0 4 0 2 1019.1 1019.9 0.0
06/10:00am 4.5 2.9 4.5 100 0.0 SW 2 7 1 4 1019.0 1019.7 0.0
06/09:30am 4.1 2.8 4.1 100 0.0 CALM 0 0 0 0 1018.8 1019.5 0.0
06/09:00am 3.8 2.4 3.8 100 0.0 CALM 0 0 0 0 1018.7 1019.4 0.2
06/08:30am 3.4 2.0 3.4 100 0.0 CALM 0 0 0 0 1018.7 1019.4 0.2
06/08:00am 3.1 1.6 3.1 100 0.0 CALM 0 0 0 0 1018.8 1019.5 0.2
06/07:30am 2.8 1.3 2.8 100 0.0 CALM 0 0 0 0 1018.8 1019.5 0.2
06/07:00am 2.8 1.3 2.8 100 0.0 CALM 0 0 0 0 1018.7 1019.4 0.2
06/06:30am 2.9 1.4 2.9 100 0.0 CALM 0 0 0 0 1018.6 1019.3 0.2
06/06:00am 2.8 1.3 2.8 100 0.0 CALM 0 0 0 0 1018.5 1019.2 0.2
06/05:30am 2.7 1.1 2.7 100 0.0 CALM 0 0 0 0 1018.5 1019.2 0.2
06/05:00am 2.6 1.0 2.6 100 0.0 CALM 0 0 0 0 1018.6 1019.3 0.2
06/04:30am 2.4 0.8 2.4 100 0.0 CALM 0 0 0 0 1018.6 1019.3 0.2
06/04:00am 2.4 0.8 2.4 100 0.0 CALM 0 0 0 0 1018.6 1019.3 0.2
06/03:30am 2.3 0.7 2.3 100 0.0 CALM 0 0 0 0 1018.7 1019.4 0.2
06/03:00am 2.2 0.6 2.2 100 0.0 CALM 0 0 0 0 1018.9 1019.6 0.2
06/02:30am 2.3 0.7 2.3 100 0.0 CALM 0 0 0 0 1019.3 1020.1 0.2
06/02:00am 1.8 0.1 1.8 100 0.0 CALM 0 0 0 0 1019.5 1020.3 0.2
06/01:30am 1.6 -0.1 1.6 100 0.0 CALM 0 0 0 0 1019.6 1020.4 0.2
06/01:00am 1.8 0.1 1.8 100 0.0 CALM 0 0 0 0 1019.8 1020.6 0.2
06/12:30am 1.2 -0.6 1.2 100 0.0 CALM 0 0 0 0 1020.2 1021.0 0.0
06/12:00am 1.0 -0.8 1.0 100 0.0 CALM 0 0 0 0 1020.4 1021.2 0.0
 
Date/Time
EST
Temp
°C
App
Temp
°C
Dew
Point
Rel
Hum
%
Delta-T
°C
Wind Press
QNH
hPa
Press
MSL
hPa
Rain
since 9 am
mm
Dir
 
Spd
km/h
Gust
km/h
Spd
kts
Gust
kts
05/11:30pm 1.0 -0.8 1.0 100 0.0 CALM 0 0 0 0 1020.4 1021.2 0.0
05/11:00pm 0.6 -2.4 0.6 100 0.0 SSW 6 9 3 5 1020.3 1021.1 0.0
05/10:30pm 0.8 -1.1 0.8 100 0.0 CALM 0 2 0 1 1020.2 1021.0 0.0
05/10:00pm 1.5 -0.3 1.5 100 0.0 CALM 0 6 0 3 1020.2 1021.0 0.0
05/09:30pm 1.3 -0.5 1.3 100 0.0 CALM 0 0 0 0 1020.4 1021.2 0.0
05/09:00pm 2.2 0.6 2.2 100 0.0 CALM 0 0 0 0 1020.5 1021.3 0.0
05/08:30pm 2.5 0.9 2.5 100 0.0 CALM 0 0 0 0 1020.6 1021.4 0.0
05/08:00pm 3.4 2.0 3.4 100 0.0 CALM 0 0 0 0 1020.5 1021.3 0.0
05/07:30pm 3.1 1.6 3.1 100 0.0 CALM 0 0 0 0 1020.5 1021.3 0.0
05/07:00pm 3.6 2.2 3.6 100 0.0 CALM 0 0 0 0 1020.5 1021.3 0.0
05/06:30pm 3.3 0.7 3.2 99 0.0 SSE 6 7 3 4 1020.5 1021.3 0.0
05/06:00pm 3.7 2.3 3.6 99 0.0 CALM 0 0 0 0 1020.6 1021.4 0.0
05/05:30pm 4.4 2.0 4.3 99 0.0 SE 6 7 3 4 1020.4 1021.2 0.0
05/05:00pm 5.8 3.8 4.6 92 0.5 SW 4 6 2 3 1020.3 1021.1 0.0
05/04:30pm 7.9 6.7 4.5 79 1.5 CALM 0 0 0 0 1020.4 1021.2 0.0
05/04:00pm 7.7 6.4 4.1 78 1.6 CALM 0 0 0 0 1020.4 1021.2 0.0
05/03:30pm 7.7 6.0 4.1 78 1.6 NNW 2 6 1 3 1020.3 1021.1 0.0
05/03:00pm 7.7 5.4 4.7 81 1.3 N 6 9 3 5 1020.5 1021.3 0.0
05/02:30pm 6.6 4.5 4.1 84 1.1 WNW 4 9 2 5 1020.5 1021.3 0.0
05/02:00pm 7.1 5.9 4.4 83 1.2 CALM 0 0 0 0 1020.6 1021.4 0.0
05/01:30pm 6.9 5.2 4.0 82 1.3 NNW 2 6 1 3 1021.1 1021.9 0.0
05/01:00pm 6.6 3.6 4.3 85 1.0 WNW 9 11 5 6 1021.8 1022.6 0.0
05/12:30pm 6.4 4.3 3.9 84 1.1 NNE 4 9 2 5 1022.1 1022.9 0.0
05/12:00pm 5.9 3.5 4.2 89 0.7 NNW 6 7 3 4 1022.3 1023.1 0.0
05/11:30am 5.2 3.9 4.0 92 0.5 CALM 0 0 0 0 1022.7 1023.5 0.0
05/11:00am 4.1 2.4 4.0 99 0.0 WNW 2 6 1 3 1023.3 1024.1 0.0
05/10:30am 3.4 2.0 3.3 99 0.0 CALM 0 0 0 0 1023.8 1024.6 0.0
05/10:00am 2.6 1.0 2.6 100 0.0 CALM 0 2 0 1 1024.0 1024.9 0.0
05/09:30am 1.6 -1.3 1.6 100 0.0 WSW 6 7 3 4 1023.8 1024.6 0.0
05/09:00am 1.1 -0.7 1.1 100 0.0 CALM 0 7 0 4 1023.7 1024.5 0.0
05/08:30am -0.2 -2.2 -0.2 100 0.0 CALM 0 0 0 0 1023.7 1024.5 0.0
05/08:00am -0.5 -2.9 -0.5 100 0.0 S 2 6 1 3 1023.6 1024.4 0.0
05/07:30am -1.1 -4.0 -1.1 100 0.0 SSE 4 7 2 4 1023.5 1024.3 0.0
05/07:00am -0.9 -3.0 -0.9 100 0.0 CALM 0 4 0 2 1023.5 1024.3 0.0
05/06:30am -1.3 -3.5 -1.3 100 0.0 CALM 0 0 0 0 1023.1 1023.9 0.0
05/06:00am -1.1 -3.2 -1.1 100 0.0 CALM 0 0 0 0 1023.2 1024.0 0.0
05/05:30am -0.5 -2.6 -0.5 100 0.0 CALM 0 0 0 0 1022.8 1023.6 0.0
05/05:00am -1.1 -3.2 -1.1 100 0.0 CALM 0 4 0 2 1022.7 1023.5 0.0
05/04:30am -0.6 -4.0 -0.6 100 0.0 NNE 7 9 4 5 1022.8 1023.6 0.0
05/04:00am 0.2 -2.9 0.2 100 0.0 SSE 6 7 3 4 1022.8 1023.6 0.0
05/03:30am -0.6 -3.0 -0.6 100 0.0 NNE 2 7 1 4 1022.8 1023.6 0.0
05/03:00am 0.2 -2.1 0.2 100 0.0 S 2 7 1 4 1023.0 1023.8 0.0
05/02:30am 0.6 -1.7 0.6 100 0.0 S 2 6 1 3 1022.8 1023.6 0.0
05/02:00am 0.2 -2.9 0.2 100 0.0 SE 6 13 3 7 1023.0 1023.8 0.0
05/01:30am 0.4 -1.5 0.4 100 0.0 CALM 0 0 0 0 1023.0 1023.8 0.0
05/01:00am 1.0 -0.8 1.0 100 0.0 CALM 0 0 0 0 1023.3 1024.1 0.0
05/12:30am 1.3 -0.5 1.3 100 0.0 CALM 0 0 0 0 1023.7 1024.5 0.0
05/12:00am 1.6 -0.1 1.6 100 0.0 CALM 0 0 0 0 1024.1 1025.0 0.0
 
Date/Time
EST
Temp
°C
App
Temp
°C
Dew
Point
Rel
Hum
%
Delta-T
°C
Wind Press
QNH
hPa
Press
MSL
hPa
Rain
since 9 am
mm
Dir
 
Spd
km/h
Gust
km/h
Spd
kts
Gust
kts
04/11:30pm 1.1 -0.7 1.1 100 0.0 CALM 0 0 0 0 1024.2 1025.1 0.0
04/11:00pm 0.8 -1.1 0.8 100 0.0 CALM 0 0 0 0 1024.2 1025.1 0.0
04/10:30pm 0.7 -1.2 0.6 99 0.0 CALM 0 0 0 0 1024.0 1024.9 0.0
04/10:00pm 1.1 -1.5 1.1 100 0.0 ENE 4 6 2 3 1023.9 1024.7 0.0
04/09:30pm 1.0 -1.6 0.9 99 0.0 S 4 6 2 3 1023.9 1024.7 0.0
04/09:00pm 1.6 -0.5 1.5 99 0.0 SSE 2 6 1 3 1024.0 1024.9 0.0
04/08:30pm 2.0 0.3 1.9 99 0.0 CALM 0 0 0 0 1024.1 1025.0 0.0
04/08:00pm 1.8 -0.3 1.7 99 0.0 SE 2 7 1 4 1024.1 1025.0 0.0
04/07:30pm 1.5 -0.6 1.4 99 0.0 S 2 9 1 5 1024.0 1024.9 0.0
04/07:00pm 2.6 1.0 2.5 99 0.0 CALM 0 0 0 0 1024.1 1025.0 0.0
04/06:30pm 2.7 1.1 2.6 99 0.0 CALM 0 0 0 0 1023.9 1024.7 0.0
04/06:00pm 3.0 1.4 2.4 96 0.2 CALM 0 4 0 2 1023.7 1024.5 0.0
04/05:30pm 3.6 1.2 2.3 91 0.5 SSW 4 7 2 4 1023.3 1024.1 0.0
04/05:00pm 5.2 3.5 1.9 79 1.3 CALM 0 0 0 0 1023.2 1024.0 0.0
04/04:30pm 7.0 5.4 2.3 72 2.0 CALM 0 6 0 3 1023.1 1023.9 0.0
04/04:00pm 7.3 5.8 2.8 73 1.9 CALM 0 0 0 0 1023.2 1024.0 0.0
04/03:30pm 8.1 5.4 0.6 59 3.1 NE 4 9 2 5 1023.3 1024.1 0.0
04/03:00pm 8.8 5.8 1.0 58 3.2 NW 6 9 3 5 1023.3 1024.1 0.0
04/02:30pm 8.5 5.0 1.2 60 3.0 NW 9 13 5 7 1023.1 1023.9 0.0
04/02:00pm 8.0 3.8 1.8 65 2.6 NW 13 15 7 8 1023.0 1023.8 0.0
04/01:30pm 7.7 3.8 3.2 73 1.9 NW 13 17 7 9 1023.2 1024.0 0.0
04/01:00pm 7.7 4.6 3.4 74 1.9 NW 9 13 5 7 1023.6 1024.4 0.0
04/12:30pm 7.2 4.9 2.9 74 1.8 WNW 4 9 2 5 1024.0 1024.9 0.0
04/12:00pm 6.4 4.5 2.7 77 1.6 NW 2 7 1 4 1024.8 1025.6 0.0
04/11:30am 5.0 2.2 2.0 81 1.2 NW 6 9 3 5 1025.3 1026.1 0.0
04/11:00am 3.7 1.4 2.7 93 0.4 W 4 11 2 6 1025.5 1026.3 0.0
04/10:30am 2.8 1.2 2.7 99 0.0 CALM 0 0 0 0 1025.6 1026.4 0.0
04/10:00am 1.7 -0.4 1.6 99 0.0 WSW 2 6 1 3 1025.8 1026.6 0.0
04/09:30am 1.6 -1.5 1.6 100 0.0 N 7 9 4 5 1025.7 1026.5 0.0
04/09:00am 0.7 -1.2 0.7 100 0.0 CALM 0 6 0 3 1025.9 1026.7 0.2
04/08:30am 0.2 -3.1 0.2 100 0.0 N 7 9 4 5 1025.3 1026.1 0.2
04/08:00am -0.6 -4.4 -0.6 100 0.0 N 9 9 5 5 1025.4 1026.2 0.2
04/07:30am -0.4 -2.8 -0.4 100 0.0 S 2 6 1 3 1025.1 1025.9 0.2
04/07:00am -0.7 -3.2 -0.7 100 0.0 NE 2 6 1 3 1025.1 1025.9 0.2
04/06:30am -0.6 -4.0 -0.6 100 0.0 SSE 7 9 4 5 1025.1 1025.9 0.2
04/06:00am 0.1 -3.6 0.1 100 0.0 NE 9 11 5 6 1024.4 1025.3 0.2
04/05:30am -0.5 -3.9 -0.6 99 0.0 NW 7 9 4 5 1024.1 1025.0 0.2
04/05:00am 0.2 -3.1 0.2 100 0.0 NE 7 11 4 6 1024.2 1025.1 0.2
04/04:30am 0.3 -3.3 0.3 100 0.0 SW 9 11 5 6 1024.4 1025.3 0.2
04/04:00am 0.7 -2.3 0.7 100 0.0 NE 6 7 3 4 1024.9 1025.7 0.2
04/03:30am 0.4 -2.9 0.4 100 0.0 NE 7 9 4 5 1025.0 1025.8 0.2
04/03:00am 0.1 -1.9 0.1 100 0.0 CALM 0 0 0 0 1025.0 1025.8 0.2
04/02:30am 0.0 -3.1 0.0 100 0.0 NNE 6 7 3 4 1025.3 1026.1 0.2
04/02:00am 0.1 -3.2 0.1 100 0.0 NE 7 9 4 5 1025.3 1026.1 0.2
04/01:30am -0.5 -3.3 -0.5 100 0.0 NNW 4 9 2 5 1025.5 1026.3 0.2
04/01:00am -0.2 -3.4 -0.2 100 0.0 NE 6 7 3 4 1025.7 1026.5 0.2
04/12:30am -0.8 -2.9 -0.8 100 0.0 CALM 0 0 0 0 1025.7 1026.5 0.2
04/12:00am -1.4 -4.7 -1.4 100 0.0 NNE 6 7 3 4 1026.0 1026.8 0.2
 
Date/Time
EST
Temp
°C
App
Temp
°C
Dew
Point
Rel
Hum
%
Delta-T
°C
Wind Press
QNH
hPa
Press
MSL
hPa
Rain
since 9 am
mm
Dir
 
Spd
km/h
Gust
km/h
Spd
kts
Gust
kts
03/11:30pm -1.1 -3.2 -1.1 100 0.0 CALM 0 0 0 0 1026.1 1026.9 0.2
03/11:00pm -1.0 -3.1 -1.0 100 0.0 CALM 0 0 0 0 1026.3 1027.1 0.2
03/10:30pm -0.7 -2.8 -0.7 100 0.0 CALM 0 2 0 1 1026.2 1027.0 0.2
03/10:00pm -1.1 -4.0 -1.1 100 0.0 SW 4 7 2 4 1026.0 1026.8 0.2
03/09:30pm -0.6 -2.7 -0.6 100 0.0 CALM 0 4 0 2 1026.2 1027.0 0.2
03/09:00pm -0.6 -2.7 -0.7 99 0.0 CALM 0 6 0 3 1026.5 1027.4 0.2
03/08:30pm 0.0 -2.0 0.0 100 0.0 CALM 0 0 0 0 1026.9 1027.8 0.2
03/08:00pm 0.0 -2.0 -0.1 99 0.0 CALM 0 0 0 0 1026.7 1027.6 0.2
03/07:30pm 0.7 -1.2 0.6 99 0.0 CALM 0 0 0 0 1026.5 1027.4 0.2
03/07:00pm 1.1 -0.7 1.0 99 0.0 CALM 0 4 0 2 1026.6 1027.5 0.2
03/06:30pm 1.5 -0.6 1.4 99 0.0 SSE 2 6 1 3 1026.5 1027.4 0.2
03/06:00pm 1.9 0.1 1.3 96 0.2 CALM 0 0 0 0 1026.4 1027.2 0.2
03/05:30pm 3.0 -0.4 2.1 94 0.4 SSW 9 9 5 5 1026.3 1027.1 0.2

Other Formats:

Comma delimited format used in spreadsheet applications
http://www.bom.gov.au/fwo/IDN60801/IDN60801.94919.axf

JavaScript Object Notation format (JSON) in row-major order
http://www.bom.gov.au/fwo/IDN60801/IDN60801.94919.json